Πλησιέστερες Αναφορές METAR

 

LGTS - Thessaloniki/Makedonia-Elev 7m
Απόσταση από σταθμό: Ν 13km
Ενημερώθηκε: 21/01/2018 12:20
Μερικώς νεφελώδης
Μερικώς νεφελώδης
 Ανεμοι από ΔΒΔ
Ανεμος: ΔΒΔ 7 km/h
Θερμοκρασία: 8°C
Δείκτης Ψύχρας: 7°C
Σημείο Δρόσου: 4°C
Υγρασία: 76%
Βαρόμετρο: 1007 hPa
Νέφωση: Μερικώς νεφελώδης
Ορατότητα: 10 km
Λεπτομέρειες Νεφών: Διάσπαρτα Νέφη 244 m
Μερικώς νεφελώδης 762 m
2018/01/21 10:20 LGTS 211020Z 30004KT 9999 FEW008 SCT025 08/04 Q1007 NOSIG
LGAV - Athens/Elef. Venizelos-Elev 94m
Απόσταση από σταθμό: ΝΝΑ 312km
Ενημερώθηκε: 21/01/2018 12:20
Μερικώς νεφελώδης
Μερικώς νεφελώδης
 Ανεμοι από Ν
Ανεμος: Ν 24 km/h
Θερμοκρασία: 17°C
Σημείο Δρόσου: 6°C
Υγρασία: 49%
Βαρόμετρο: 1008 hPa
Νέφωση: Μερικώς νεφελώδης
Ορατότητα: 10 km
Λεπτομέρειες Νεφών: Μερικώς νεφελώδης 762 m
2018/01/21 10:20 LGAV 211020Z 18013KT 9999 SCT025 17/06 Q1008 NOSIG
 
LGAL - Alexandroupolis-Elev 3m
Απόσταση από σταθμό: Α 251km
Ενημερώθηκε: 21/01/2018 12:20
Σχεδόν νεφελώδης
Σχεδόν νεφελώδης
 Ανεμοι από ΑΒΑ
Ανεμος: ΑΒΑ 17 km/h
Θερμοκρασία: 8°C
Δείκτης Ψύχρας: 5°C
Σημείο Δρόσου: 4°C
Υγρασία: 76%
Βαρόμετρο: 1010 hPa
Νέφωση: Σχεδόν νεφελώδης
Ορατότητα: 10 km
Λεπτομέρειες Νεφών: Σχεδόν νεφελώδης 762 m
2018/01/21 10:20 LGAL 211020Z 06009KT 9999 BKN025 08/04 Q1010
LGKV - Kavala/Crysoupolis-Elev 5m
Απόσταση από σταθμό: ΑΒΑ 144km
Ενημερώθηκε: 21/01/2018 12:20
Ασθενής βροχή, Σχεδόν νεφελώδης
Ασθενής βροχή, Σχεδόν νεφελώδης
 Ανεμοι από ΑΒΑ
Ανεμος: ΑΒΑ 13 km/h
Θερμοκρασία: 9°C
Δείκτης Ψύχρας: 7°C
Σημείο Δρόσου: 7°C
Υγρασία: 87%
Βαρόμετρο: 1008 hPa
Περίληψη: Ασθενής βροχή
Νέφωση: Σχεδόν νεφελώδης
Ορατότητα: 10 km
Λεπτομέρειες Νεφών: Διάσπαρτα Νέφη 244 m
Σχεδόν νεφελώδης 610 m
Σχεδόν νεφελώδης 2438 m
2018/01/21 10:20 LGKV 211020Z 06007KT 9999 -RA FEW008 BKN020 BKN080 09/07 Q1008
 
LGSK - Skiathos Island-Elev 15m
Απόσταση από σταθμό: ΝΝΑ 168km
Ενημερώθηκε: 21/01/2018 12:20
Μερικώς νεφελώδης
Μερικώς νεφελώδης
 Ανεμοι από άπνοια
Ανεμος: άπνοια
Θερμοκρασία: 13°C
Σημείο Δρόσου: 9°C
Υγρασία: 77%
Βαρόμετρο: 1007 hPa
Νέφωση: Μερικώς νεφελώδης
Ορατότητα: 10 km
Λεπτομέρειες Νεφών: Μερικώς νεφελώδης 762 m
2018/01/21 10:20 LGSK 211020Z 00000KT 9999 SCT025 13/09 Q1007
LGLM - Limnos Island-Elev 5m
Απόσταση από σταθμό: ΑΝΑ 210km
Ενημερώθηκε: 21/01/2018 12:20
Σχεδόν νεφελώδης
Σχεδόν νεφελώδης
 Ανεμοι από Ν
Ανεμος: Ν 28 km/h, Ριπή: 46 km/h
Θερμοκρασία: 14°C
Σημείο Δρόσου: 11°C
Υγρασία: 82%
Βαρόμετρο: 1007 hPa
Νέφωση: Σχεδόν νεφελώδης
Ορατότητα: 10 km
Λεπτομέρειες Νεφών: Διάσπαρτα Νέφη 305 m
Σχεδόν νεφελώδης 549 m
2018/01/21 10:20 LGLM 211020Z 18015G25KT 9999 FEW010 BKN018 14/11 Q1007
 
LGMT - Mitilini Island-Elev 17m
Απόσταση από σταθμό: ΑΝΑ 358km
Ενημερώθηκε: 21/01/2018 12:20
Βροχή, Μερικώς νεφελώδης
Βροχή, Μερικώς νεφελώδης
 Ανεμοι από ΝΝΑ
Ανεμος: ΝΝΑ 15 km/h
Θερμοκρασία: 14°C
Σημείο Δρόσου: 11°C
Υγρασία: 82%
Βαρόμετρο: 1011 hPa
Περίληψη: Βροχή
Νέφωση: Μερικώς νεφελώδης
Ορατότητα: 4 km
Λεπτομέρειες Νεφών: Διάσπαρτα Νέφη 549 m
Μερικώς νεφελώδης 762 m
2018/01/21 10:20 LGMT 211020Z 15008KT 130V220 4000 RA FEW018 SCT025 14/11 Q1011
LGSY - Skiros Island-Elev 15m
Απόσταση από σταθμό: ΝΑ 227km
Ενημερώθηκε: 21/01/2018 11:50
Διάσπαρτα Νέφη
Διάσπαρτα Νέφη
 Ανεμοι από Ν
Ανεμος: Ν 39 km/h, Ριπή: 57 km/h
Θερμοκρασία: 16°C
Σημείο Δρόσου: 9°C
Υγρασία: 63%
Βαρόμετρο: 1006 hPa
Νέφωση: Διάσπαρτα Νέφη
Ορατότητα: 10 km
Λεπτομέρειες Νεφών: Διάσπαρτα Νέφη 914 m
2018/01/21 09:50 LGSY 210950Z 18021G31KT 9999 FEW030 16/09 Q1006 RMK FEW080 BKN180 BLU
 
LGKZ - Kozani-Elev 628m
Απόσταση από σταθμό: ΔΝΔ 102km
Ενημερώθηκε: 21/01/2018 11:50
Σχεδόν νεφελώδης
Σχεδόν νεφελώδης
 Ανεμοι από άπνοια
Ανεμος: άπνοια
Θερμοκρασία: 8°C
Σημείο Δρόσου: 4°C
Υγρασία: 76%
Βαρόμετρο: 1007 hPa
Νέφωση: Σχεδόν νεφελώδης
Ορατότητα: 10 km
Λεπτομέρειες Νεφών: Διάσπαρτα Νέφη 610 m
Σχεδόν νεφελώδης 2134 m
2018/01/21 09:50 LGKZ 210950Z 00000KT 9999 FEW020 BKN070 08/04 Q1007
LGIO - Ioannina-Elev 476m
Απόσταση από σταθμό: ΔΝΔ 209km
Ενημερώθηκε: 21/01/2018 11:50
Σχεδόν νεφελώδης
Σχεδόν νεφελώδης
 Ανεμοι από μεταβλητός
Ανεμος: μεταβλητός 0 km/h
Θερμοκρασία: 7°C
Σημείο Δρόσου: 6°C
Υγρασία: 93%
Βαρόμετρο: 1007 hPa
Νέφωση: Σχεδόν νεφελώδης
Ορατότητα: 10 km
Λεπτομέρειες Νεφών: Διάσπαρτα Νέφη 244 m
Μερικώς νεφελώδης 914 m
Σχεδόν νεφελώδης 2438 m
2018/01/21 09:50 LGIO 210950Z /////KT 9999 FEW008 SCT030 BKN080 07/06 Q1007
 
LGZA - Zakinthos-Elev 3m
Απόσταση από σταθμό: ΝΝΔ 367km
Ενημερώθηκε: 21/01/2018 11:50
Ασθενής βροχή, Συννεφιά
Ασθενής βροχή, Συννεφιά
 Ανεμοι από μεταβλητός
Ανεμος: μεταβλητός 6 km/h
Θερμοκρασία: 12°C
Σημείο Δρόσου: 11°C
Υγρασία: 94%
Βαρόμετρο: 1008 hPa
Περίληψη: Ασθενής βροχή
Νέφωση: Συννεφιά
Ορατότητα: 7 km
Λεπτομέρειες Νεφών: Διάσπαρτα Νέφη 366 m
Σχεδόν νεφελώδης 610 m
Συννεφιά 2134 m
2018/01/21 09:50 LGZA 210950Z VRB03KT 7000 -RA FEW012 BKN020 OVC070 12/11 Q1008
LGKR - Corfu Island-Elev 2m
Απόσταση από σταθμό: ΔΝΔ 282km
Ενημερώθηκε: 21/01/2018 12:20
Σχεδόν νεφελώδης
Σχεδόν νεφελώδης
 Ανεμοι από άπνοια
Ανεμος: άπνοια
Θερμοκρασία: 12°C
Σημείο Δρόσου: 11°C
Υγρασία: 94%
Βαρόμετρο: 1007 hPa
Νέφωση: Σχεδόν νεφελώδης
Ορατότητα: 9 km
Λεπτομέρειες Νεφών: Μερικώς νεφελώδης 305 m
Μερικώς νεφελώδης 762 m
Σχεδόν νεφελώδης 2134 m
2018/01/21 10:20 LGKR 211020Z 00000KT 9000 SCT010 SCT025 BKN070 12/11 Q1007 NOSIG
 
LGSO - Syros Island-Elev 72m
Απόσταση από σταθμό: ΝΝΑ 397km
Ενημερώθηκε: 21/01/2018 11:50
Διάσπαρτα Νέφη
Διάσπαρτα Νέφη
 Ανεμοι από ΝΑ
Ανεμος: ΝΑ 22 km/h
Θερμοκρασία: 16°C
Σημείο Δρόσου: 9°C
Υγρασία: 63%
Βαρόμετρο: 1010 hPa
Νέφωση: Διάσπαρτα Νέφη
Ορατότητα: 10 km
Λεπτομέρειες Νεφών: Διάσπαρτα Νέφη 610 m
2018/01/21 09:50 LGSO 210950Z 13012KT 9999 FEW020 16/09 Q1010
LGMK - Mikonos Island-Elev 123m
Απόσταση από σταθμό: ΝΝΑ 412km
Ενημερώθηκε: 21/01/2018 11:50
Μερικώς νεφελώδης
Μερικώς νεφελώδης
 Ανεμοι από ΝΝΑ
Ανεμος: ΝΝΑ 13 km/h
Θερμοκρασία: 16°C
Σημείο Δρόσου: 10°C
Υγρασία: 68%
Βαρόμετρο: 1011 hPa
Νέφωση: Μερικώς νεφελώδης
Ορατότητα: 10 km
Λεπτομέρειες Νεφών: Διάσπαρτα Νέφη 610 m
Μερικώς νεφελώδης 914 m
2018/01/21 09:50 LGMK 210950Z 15007KT 9999 FEW020 SCT030 16/10 Q1011
 
LGSR - Santorini Island-Elev 40m
Απόσταση από σταθμό: ΝΝΑ 520km
Ενημερώθηκε: 21/01/2018 11:50
Μερικώς νεφελώδης
Μερικώς νεφελώδης
 Ανεμοι από ΝΑ
Ανεμος: ΝΑ 41 km/h
Θερμοκρασία: 17°C
Σημείο Δρόσου: 11°C
Υγρασία: 68%
Βαρόμετρο: 1009 hPa
Νέφωση: Μερικώς νεφελώδης
Ορατότητα: 10 km
Λεπτομέρειες Νεφών: Διάσπαρτα Νέφη 610 m
Μερικώς νεφελώδης 762 m
2018/01/21 09:50 LGSR 210950Z 14022KT 9999 FEW020 SCT025 17/11 Q1009
LGKL - Kalamata-Elev 8m
Απόσταση από σταθμό: Ν 405km
Ενημερώθηκε: 21/01/2018 12:20
Μερικώς νεφελώδης
Μερικώς νεφελώδης
 Ανεμοι από ΝΝΔ
Ανεμος: ΝΝΔ 13 km/h
Θερμοκρασία: 17°C
Σημείο Δρόσου: 8°C
Υγρασία: 56%
Βαρόμετρο: 1008 hPa
Νέφωση: Μερικώς νεφελώδης
Ορατότητα: 10 km
Λεπτομέρειες Νεφών: Μερικώς νεφελώδης 914 m
Μερικώς νεφελώδης 2438 m
2018/01/21 10:20 LGKL 211020Z 20007KT 9999 SCT030 SCT080 17/08 Q1008
 
LGIR - Iraklion/Crete-Elev 5m
Απόσταση από σταθμό: ΝΝΑ 622km
Ενημερώθηκε: 21/01/2018 12:20
Μερικώς νεφελώδης
Μερικώς νεφελώδης
 Ανεμοι από Ν
Ανεμος: Ν 31 km/h
Θερμοκρασία: 17°C
Σημείο Δρόσου: 11°C
Υγρασία: 68%
Βαρόμετρο: 1010 hPa
Νέφωση: Μερικώς νεφελώδης
Ορατότητα: 10 km
Λεπτομέρειες Νεφών: Μερικώς νεφελώδης 610 m
2018/01/21 10:20 LGIR 211020Z 18017KT 9999 SCT020 17/11 Q1010 NOSIG
LGRP - Rhodes-Elev 5m
Απόσταση από σταθμό: ΝΑ 649km
Ενημερώθηκε: 21/01/2018 12:20
Ασθενής βροχή, Σχεδόν νεφελώδης
Ασθενής βροχή, Σχεδόν νεφελώδης
 Ανεμοι από ΑΝΑ
Ανεμος: ΑΝΑ 15 km/h, Ριπή: 33 km/h
Θερμοκρασία: 16°C
Σημείο Δρόσου: 12°C
Υγρασία: 77%
Βαρόμετρο: 1013 hPa
Περίληψη: Ασθενής βροχή
Νέφωση: Σχεδόν νεφελώδης
Ορατότητα: 10 km
Λεπτομέρειες Νεφών: Μερικώς νεφελώδης 549 m
Σχεδόν νεφελώδης 610 m
2018/01/21 10:20 LGRP 211020Z 12008G18KT 060V180 9999 -RA SCT018 BKN020 16/12 Q1013 WS R07 NOSIG
 
LWOH - Ohrid/FYROM-Elev 761m
Απόσταση από σταθμό: ΔΒΔ 188km
Ενημερώθηκε: 21/01/2018 12:30
Συννεφιά
Συννεφιά
 Ανεμοι από Δ
Ανεμος: Δ 4 km/h
Θερμοκρασία: 4°C
Σημείο Δρόσου: 3°C
Υγρασία: 93%
Βαρόμετρο: 1005 hPa
Νέφωση: Συννεφιά
Ορατότητα: 10 km
Λεπτομέρειες Νεφών: Μερικώς νεφελώδης 305 m
Συννεφιά 1219 m
2018/01/21 10:30 LWOH 211030Z 27002KT 9999 SCT010 OVC040 04/03 Q1005
LBSF - Sofia/Bulgaria-Elev 595m
Απόσταση από σταθμό: Β 227km
Ενημερώθηκε: 21/01/2018 12:30
Μερικώς νεφελώδης
Μερικώς νεφελώδης
 Ανεμοι από ΑΝΑ
Ανεμος: ΑΝΑ 7 km/h
Θερμοκρασία: -1°C
Δείκτης Ψύχρας: -4°C
Σημείο Δρόσου: -2°C
Υγρασία: 93%
Βαρόμετρο: 1007 hPa
Νέφωση: Μερικώς νεφελώδης
Ορατότητα: 7 km
Λεπτομέρειες Νεφών: Μερικώς νεφελώδης 183 m
Μερικώς νεφελώδης 1494 m
2018/01/21 10:30 LBSF 211030Z 12004KT 090V150 7000 SCT006 SCT049 M01/M02 Q1007 R99/29//95 NOSIG